createdAt,value
2022-12-01T00:02:05.419Z,67.58
2022-12-01T00:04:49.075Z,67.35
2022-12-01T00:07:32.099Z,67.22
2022-12-01T00:10:26.071Z,67.39
2022-12-01T00:13:08.985Z,67.38
2022-12-01T00:15:51.967Z,67.56
2022-12-01T00:18:36.332Z,67.65
2022-12-01T00:21:20.956Z,67.25
2022-12-01T00:24:03.897Z,67.31
2022-12-01T00:26:46.846Z,67.00
2022-12-01T00:29:29.913Z,67.14
2022-12-01T00:32:12.894Z,67.05
2022-12-01T00:34:57.256Z,66.88
2022-12-01T00:37:40.350Z,67.03
2022-12-01T00:40:23.326Z,67.09
2022-12-01T00:43:06.302Z,67.10
2022-12-01T00:45:49.349Z,66.97
2022-12-01T00:48:32.389Z,66.89
2022-12-01T00:51:16.759Z,66.70
2022-12-01T00:53:59.651Z,66.77
2022-12-01T00:56:42.620Z,66.85
2022-12-01T00:59:25.639Z,66.63
2022-12-01T01:02:09.522Z,66.63
2022-12-01T01:04:52.503Z,66.85
2022-12-01T01:07:37.120Z,67.01
2022-12-01T01:10:20.083Z,66.97
2022-12-01T01:13:03.033Z,66.93
2022-12-01T01:15:46.376Z,66.82
2022-12-01T01:18:29.649Z,66.92
2022-12-01T01:21:14.624Z,66.78
2022-12-01T01:23:59.025Z,66.67
2022-12-01T01:26:42.041Z,66.88
2022-12-01T01:29:25.009Z,66.68
2022-12-01T01:32:07.944Z,66.85
2022-12-01T01:34:50.892Z,66.86
2022-12-01T01:37:33.948Z,66.88
2022-12-01T01:40:18.734Z,66.85
2022-12-01T01:43:01.714Z,66.85
2022-12-01T01:45:45.196Z,66.77
2022-12-01T01:48:28.184Z,66.90
2022-12-01T01:51:14.324Z,66.64
2022-12-01T01:54:02.612Z,66.93
2022-12-01T01:56:49.123Z,66.36
2022-12-01T01:59:37.161Z,66.40
2022-12-01T02:02:20.405Z,66.34
2022-12-01T02:05:04.212Z,66.18
2022-12-01T02:07:48.582Z,66.07
2022-12-01T02:10:40.767Z,65.75
2022-12-01T02:13:33.734Z,65.74
2022-12-01T02:16:23.898Z,65.69
2022-12-01T02:19:23.209Z,65.72
2022-12-01T02:22:19.567Z,65.83
2022-12-01T02:25:22.671Z,65.68
2022-12-01T02:28:35.431Z,65.68
2022-12-01T02:31:23.888Z,65.63
2022-12-01T02:34:12.988Z,65.77
2022-12-01T02:37:01.563Z,65.77
2022-12-01T02:39:53.224Z,65.63
2022-12-01T02:42:52.363Z,65.59
2022-12-01T02:45:41.840Z,65.54
2022-12-01T02:48:30.664Z,65.58
2022-12-01T02:51:17.413Z,65.61
2022-12-01T02:54:03.356Z,65.59
2022-12-01T02:56:46.682Z,65.65
2022-12-01T02:59:29.705Z,65.73
2022-12-01T03:02:19.353Z,65.60
2022-12-01T03:05:08.401Z,65.36
2022-12-01T03:08:00.893Z,65.09
2022-12-01T03:10:49.701Z,65.14
2022-12-01T03:13:43.021Z,65.10
2022-12-01T03:16:31.415Z,65.19
2022-12-01T03:19:17.222Z,64.94
2022-12-01T03:22:06.699Z,64.90
2022-12-01T03:24:52.496Z,65.02
2022-12-01T03:27:44.095Z,64.70
2022-12-01T03:30:36.144Z,64.88
2022-12-01T03:33:25.786Z,64.85
2022-12-01T03:36:15.133Z,64.80
2022-12-01T03:39:04.722Z,64.96
2022-12-01T03:41:54.062Z,64.73
2022-12-01T03:44:42.084Z,64.74
2022-12-01T03:47:29.402Z,64.96
2022-12-01T03:50:14.548Z,64.61
2022-12-01T03:53:07.689Z,64.80
2022-12-01T03:55:58.335Z,64.78
2022-12-01T03:58:46.001Z,64.65
2022-12-01T04:01:32.845Z,64.64
2022-12-01T04:04:16.628Z,64.62
2022-12-01T04:06:59.577Z,64.34
2022-12-01T04:09:43.056Z,64.23
2022-12-01T04:12:33.885Z,64.27
2022-12-01T04:15:17.102Z,64.26
2022-12-01T04:18:00.008Z,64.08
2022-12-01T04:20:43.738Z,63.70
2022-12-01T04:23:40.591Z,64.05
2022-12-01T04:26:23.539Z,64.03
2022-12-01T04:29:09.123Z,63.92
2022-12-01T04:31:52.078Z,63.71
2022-12-01T04:34:35.256Z,63.60
2022-12-01T04:37:18.786Z,63.78
2022-12-01T04:40:01.779Z,63.64
2022-12-01T04:42:44.716Z,63.29
2022-12-01T04:45:29.055Z,63.18
2022-12-01T04:48:12.046Z,63.74
2022-12-01T04:50:55.059Z,63.64
2022-12-01T04:53:38.700Z,63.52
2022-12-01T04:56:22.018Z,63.08
2022-12-01T04:59:05.051Z,63.53
2022-12-01T05:01:49.469Z,63.30
2022-12-01T05:04:34.061Z,63.44
2022-12-01T05:07:18.037Z,62.98
2022-12-01T05:10:01.018Z,63.18
2022-12-01T05:12:44.020Z,63.08
2022-12-01T05:15:27.017Z,63.29
2022-12-01T05:18:11.308Z,62.99
2022-12-01T05:20:59.055Z,62.63
2022-12-01T05:23:42.038Z,62.55
2022-12-01T05:26:24.987Z,62.43
2022-12-01T05:29:08.206Z,62.60
2022-12-01T05:31:51.213Z,62.42
2022-12-01T05:34:35.585Z,62.28
2022-12-01T05:37:18.935Z,62.50
2022-12-01T05:40:01.940Z,62.42
2022-12-01T05:42:44.906Z,62.56
2022-12-01T05:45:28.252Z,62.63
2022-12-01T05:48:11.311Z,62.83
2022-12-01T05:50:55.619Z,62.78
2022-12-01T05:53:38.635Z,62.65
2022-12-01T05:56:21.896Z,62.71
2022-12-01T05:59:05.052Z,62.68
2022-12-01T06:01:47.985Z,62.68
2022-12-01T06:04:31.062Z,62.78
2022-12-01T06:07:15.462Z,62.50
2022-12-01T06:09:58.396Z,62.64
2022-12-01T06:12:41.307Z,62.38
2022-12-01T06:15:24.281Z,62.54
2022-12-01T06:18:07.738Z,62.52
2022-12-01T06:20:50.706Z,62.60
2022-12-01T06:23:35.383Z,62.57
2022-12-01T06:26:18.371Z,62.86
2022-12-01T06:29:01.305Z,62.64
2022-12-01T06:31:44.458Z,62.81
2022-12-01T06:34:27.404Z,62.75
2022-12-01T06:37:10.460Z,62.83
2022-12-01T06:39:54.786Z,62.87
2022-12-01T06:42:37.797Z,62.60
2022-12-01T06:45:21.195Z,62.77
2022-12-01T06:48:04.237Z,62.50
2022-12-01T06:50:47.249Z,62.32
2022-12-01T06:53:30.681Z,62.21
2022-12-01T06:56:15.141Z,62.41
2022-12-01T06:58:58.357Z,62.22
2022-12-01T07:01:41.741Z,62.47
2022-12-01T07:04:24.813Z,62.36
2022-12-01T07:07:07.835Z,62.45
2022-12-01T07:09:51.023Z,62.37
2022-12-01T07:12:35.657Z,62.37
2022-12-01T07:15:18.860Z,62.31
2022-12-01T07:18:01.818Z,62.62
2022-12-01T07:20:44.821Z,62.47
2022-12-01T07:23:27.922Z,62.30
2022-12-01T07:26:13.771Z,61.85
2022-12-01T07:28:58.136Z,61.84
2022-12-01T07:31:41.057Z,61.76
2022-12-01T07:39:53.814Z,63.50
2022-12-01T07:42:36.840Z,63.00
2022-12-01T07:45:19.760Z,62.37
2022-12-01T07:48:02.968Z,62.41
2022-12-01T07:50:45.916Z,62.29
2022-12-01T07:53:28.860Z,62.50
2022-12-01T07:56:13.824Z,62.29
2022-12-01T07:58:56.918Z,62.16
2022-12-01T08:01:44.312Z,61.99
2022-12-01T08:04:27.783Z,61.84
2022-12-01T08:07:10.740Z,61.86
2022-12-01T08:09:53.685Z,61.86
2022-12-01T08:12:38.008Z,61.05
2022-12-01T08:15:20.972Z,61.17
2022-12-01T08:18:03.967Z,61.17
2022-12-01T08:20:46.925Z,60.94
2022-12-01T08:23:29.921Z,60.76
2022-12-01T08:26:16.370Z,60.65
2022-12-01T08:29:00.993Z,60.67
2022-12-01T08:31:44.079Z,59.28
2022-12-01T08:34:27.085Z,59.90
2022-12-01T08:37:10.078Z,60.21
2022-12-01T08:39:53.078Z,59.64
2022-12-01T08:42:36.047Z,60.01
2022-12-01T08:45:20.750Z,59.86
2022-12-01T08:48:03.931Z,59.69
2022-12-01T08:50:46.861Z,59.63
2022-12-01T08:53:29.953Z,59.57
2022-12-01T08:56:15.054Z,59.19
2022-12-01T08:58:58.404Z,59.44
2022-12-01T09:01:53.350Z,58.63
2022-12-01T09:04:36.167Z,57.28
2022-12-01T09:07:26.128Z,58.25
2022-12-01T09:10:10.989Z,58.52
2022-12-01T09:12:54.002Z,58.08
2022-12-01T09:15:36.974Z,58.09
2022-12-01T09:18:21.352Z,57.71
2022-12-01T09:21:12.433Z,58.05
2022-12-01T09:23:55.577Z,57.16
2022-12-01T09:26:38.520Z,57.98
2022-12-01T09:29:21.486Z,58.55
2022-12-01T09:32:04.567Z,58.49
2022-12-01T09:34:48.913Z,58.50
2022-12-01T09:37:31.988Z,58.16
2022-12-01T09:40:16.481Z,58.13
2022-12-01T09:43:02.036Z,57.88
2022-12-01T09:45:49.387Z,57.75
2022-12-01T09:48:42.537Z,57.87
2022-12-01T09:51:29.977Z,57.92
2022-12-01T09:54:15.465Z,57.76
2022-12-01T09:57:00.300Z,57.61
2022-12-01T09:59:43.757Z,57.77
2022-12-01T10:02:36.502Z,57.53
2022-12-01T10:05:22.431Z,57.27
2022-12-01T10:08:13.749Z,57.57
2022-12-01T10:11:02.849Z,56.78
2022-12-01T10:13:45.853Z,56.97
2022-12-01T10:16:36.521Z,56.54
2022-12-01T10:19:26.027Z,56.05
2022-12-01T10:22:31.116Z,56.44
2022-12-01T10:25:22.559Z,56.64
2022-12-01T10:28:25.425Z,56.45
2022-12-01T10:31:16.078Z,56.19
2022-12-01T10:34:02.655Z,56.04
2022-12-01T10:36:45.688Z,55.68
2022-12-01T10:39:31.787Z,56.08
2022-12-01T10:42:20.642Z,55.19
2022-12-01T10:45:07.473Z,54.90
2022-12-01T10:48:15.428Z,55.22
2022-12-01T10:51:16.152Z,53.94
2022-12-01T10:54:01.019Z,54.38
2022-12-01T10:56:47.697Z,54.75
2022-12-01T10:59:36.377Z,54.87
2022-12-01T11:02:23.184Z,55.16
2022-12-01T11:05:08.958Z,55.26
2022-12-01T11:07:52.984Z,54.55
2022-12-01T11:10:38.515Z,54.35
2022-12-01T11:13:24.998Z,54.47
2022-12-01T11:16:35.778Z,55.36
2022-12-01T11:19:27.373Z,55.60
2022-12-01T11:22:21.909Z,55.71
2022-12-01T11:25:06.599Z,55.82
2022-12-01T11:27:52.854Z,55.86
2022-12-01T11:30:35.845Z,56.09
2022-12-01T11:33:20.455Z,56.69
2022-12-01T11:36:03.306Z,56.91
2022-12-01T11:38:46.353Z,56.98
2022-12-01T11:41:34.314Z,57.44
2022-12-01T11:47:26.237Z,57.89
2022-12-01T11:50:25.694Z,58.13
2022-12-01T11:53:28.145Z,58.71
2022-12-01T11:56:23.699Z,58.70
2022-12-01T11:59:11.729Z,59.37
2022-12-01T12:02:04.842Z,59.38
2022-12-01T12:05:05.563Z,59.58
2022-12-01T12:08:00.808Z,60.00
2022-12-01T12:11:01.063Z,60.32
2022-12-01T12:14:04.716Z,60.35
2022-12-01T12:17:05.954Z,60.89
2022-12-01T12:20:12.289Z,61.11
2022-12-01T12:23:11.328Z,61.22
2022-12-01T12:26:03.781Z,61.49
2022-12-01T12:29:00.435Z,61.54
2022-12-01T12:31:55.561Z,61.81
2022-12-01T12:34:49.518Z,61.89
2022-12-01T12:37:42.314Z,61.90
2022-12-01T12:40:41.445Z,62.34
2022-12-01T12:43:33.357Z,62.33
2022-12-01T12:46:23.586Z,62.57
2022-12-01T12:49:28.429Z,63.05
2022-12-01T12:52:17.264Z,62.39
2022-12-01T12:55:04.121Z,62.73
2022-12-01T12:57:53.915Z,63.19
2022-12-01T13:00:39.979Z,63.61
2022-12-01T13:03:33.584Z,63.03
2022-12-01T13:06:21.793Z,63.53
2022-12-01T13:09:10.689Z,63.67
2022-12-01T13:12:00.161Z,63.80
2022-12-01T13:14:49.687Z,64.02
2022-12-01T13:17:38.148Z,63.92
2022-12-01T13:20:27.679Z,63.99
2022-12-01T13:23:15.966Z,64.29
2022-12-01T13:26:01.843Z,64.34
2022-12-01T13:28:48.898Z,65.03
2022-12-01T13:31:43.800Z,65.07
2022-12-01T13:34:27.541Z,65.77
2022-12-01T13:37:11.859Z,65.13
2022-12-01T13:39:56.350Z,65.09
2022-12-01T13:42:40.131Z,64.93
2022-12-01T13:45:23.247Z,64.94
2022-12-01T13:48:27.195Z,65.29
2022-12-01T13:51:10.149Z,65.27
2022-12-01T13:54:04.727Z,65.52
2022-12-01T13:57:01.933Z,65.45
2022-12-01T14:00:05.511Z,64.78
2022-12-01T14:03:38.490Z,64.79
2022-12-01T14:06:27.838Z,64.86
2022-12-01T14:09:20.078Z,64.79
2022-12-01T14:12:05.986Z,64.74
2022-12-01T14:14:55.194Z,64.44
2022-12-01T14:17:59.782Z,64.58
2022-12-01T14:20:49.882Z,64.01
2022-12-01T14:23:36.276Z,64.31
2022-12-01T14:26:20.797Z,63.91
2022-12-01T14:29:31.945Z,63.07
2022-12-01T14:32:24.308Z,63.35
2022-12-01T14:35:14.207Z,63.30
2022-12-01T14:37:59.281Z,63.55
2022-12-01T14:40:42.296Z,63.54
2022-12-01T14:43:45.906Z,62.89
2022-12-01T14:46:32.537Z,63.35
2022-12-01T14:49:22.865Z,63.13
2022-12-01T14:52:14.414Z,63.24
2022-12-01T14:55:00.564Z,62.71
2022-12-01T14:57:47.291Z,62.80
2022-12-01T15:00:32.162Z,62.56
2022-12-01T15:03:15.763Z,62.26
2022-12-01T15:05:58.813Z,62.44
2022-12-01T15:08:49.667Z,62.07
2022-12-01T15:11:53.979Z,62.41
2022-12-01T15:14:39.365Z,62.41
2022-12-01T15:17:31.161Z,62.82
2022-12-01T15:20:32.634Z,62.56
2022-12-01T15:23:17.910Z,62.67
2022-12-01T15:26:01.013Z,62.42
2022-12-01T15:28:45.410Z,62.50
2022-12-01T15:31:28.386Z,62.72
2022-12-01T15:34:16.471Z,62.51
2022-12-01T15:37:00.893Z,62.15
2022-12-01T15:39:46.634Z,62.41
2022-12-01T15:42:32.102Z,62.39
2022-12-01T15:45:21.095Z,62.04
2022-12-01T15:48:16.510Z,62.37
2022-12-01T15:51:07.593Z,62.41
2022-12-01T15:53:53.874Z,62.23
2022-12-01T15:56:39.398Z,62.09
2022-12-01T15:59:39.248Z,62.51
2022-12-01T16:02:29.381Z,62.17
2022-12-01T16:05:19.006Z,61.74
2022-12-01T16:08:15.403Z,62.18
2022-12-01T16:11:12.535Z,62.28
2022-12-01T16:14:02.194Z,62.19
2022-12-01T16:16:47.364Z,62.16
2022-12-01T16:19:33.762Z,62.20
2022-12-01T16:22:19.907Z,62.17
2022-12-01T16:25:03.112Z,62.48
2022-12-01T16:27:53.259Z,62.55
2022-12-01T16:30:38.454Z,62.52
2022-12-01T16:33:24.076Z,62.61
2022-12-01T16:36:09.165Z,62.45
2022-12-01T16:38:52.221Z,62.52
2022-12-01T16:41:38.771Z,62.70
2022-12-01T16:44:28.698Z,62.54
2022-12-01T16:47:17.302Z,62.63
2022-12-01T16:50:00.546Z,62.84
2022-12-01T16:52:45.993Z,62.82
2022-12-01T16:55:38.551Z,62.98
2022-12-01T16:58:21.915Z,63.00
2022-12-01T17:01:06.428Z,63.13
2022-12-01T17:03:49.206Z,63.42
2022-12-01T17:06:32.263Z,63.21
2022-12-01T17:09:16.639Z,63.25
2022-12-01T17:11:59.589Z,63.24
2022-12-01T17:14:42.719Z,63.17
2022-12-01T17:17:25.691Z,63.16
2022-12-01T17:20:10.331Z,63.38
2022-12-01T17:22:53.028Z,63.63
2022-12-01T17:25:41.636Z,63.26
2022-12-01T17:28:24.570Z,63.37
2022-12-01T17:31:09.130Z,63.62
2022-12-01T17:33:52.187Z,63.88
2022-12-01T17:36:35.155Z,63.84
2022-12-01T17:39:18.264Z,63.75
2022-12-01T17:42:02.616Z,63.81
2022-12-01T17:44:45.526Z,63.75
2022-12-01T17:47:28.755Z,63.73
2022-12-01T17:50:13.034Z,63.61
2022-12-01T17:52:56.079Z,63.71
2022-12-01T17:55:40.139Z,63.47
2022-12-01T17:58:24.617Z,63.52
2022-12-01T18:01:13.290Z,63.67
2022-12-01T18:03:58.337Z,63.74
2022-12-01T18:06:41.095Z,63.38
2022-12-01T18:09:24.473Z,63.44
2022-12-01T18:12:07.717Z,63.69
2022-12-01T18:14:52.314Z,63.63
2022-12-01T18:17:35.776Z,63.76
2022-12-01T18:20:19.088Z,63.82
2022-12-01T18:23:02.068Z,63.87
2022-12-01T18:25:45.093Z,63.63
2022-12-01T18:28:28.087Z,63.83
2022-12-01T18:31:16.383Z,63.71
2022-12-01T18:34:02.563Z,63.85
2022-12-01T18:36:47.059Z,63.82
2022-12-01T18:39:30.230Z,63.66
2022-12-01T18:42:13.186Z,63.85
2022-12-01T18:44:56.222Z,63.72
2022-12-01T18:47:40.632Z,63.95
2022-12-01T18:50:23.566Z,63.75
2022-12-01T18:53:06.571Z,63.87
2022-12-01T18:55:49.923Z,63.95
2022-12-01T18:58:33.982Z,63.81
2022-12-01T19:01:22.098Z,63.60
2022-12-01T19:04:07.921Z,63.75
2022-12-01T19:06:51.139Z,63.81
2022-12-01T19:09:34.133Z,63.59
2022-12-01T19:12:17.137Z,63.86
2022-12-01T19:15:00.317Z,63.88
2022-12-01T19:17:43.325Z,64.02
2022-12-01T19:20:27.949Z,64.04
2022-12-01T19:23:10.729Z,64.20
2022-12-01T19:25:53.717Z,64.11
2022-12-01T19:28:37.789Z,64.16
2022-12-01T19:31:23.794Z,64.18
2022-12-01T19:34:07.449Z,64.39
2022-12-01T19:36:53.624Z,64.21
2022-12-01T19:39:36.581Z,64.26
2022-12-01T19:42:19.779Z,64.10
2022-12-01T19:45:53.133Z,64.05
